首页
METAR-TAF:

METAR-TAF

机场 :

弗尔沙茨, 塞尔维亚

纬度: 45-09N, 经度: 021-19E, 海拔: 83米

当前天气观测

该预报发布于26分钟前的08:30 UTC
风速24节,风向东南,有时为39节阵风
温度 9°C
湿度 66%
气压 998 hPa
能见度10公里或以上
1500米以下无云,无积雨云

METAR: LYVR 130830Z 14024G39KT CAVOK 09/03 Q0998 NOSIG

时间: 09:56 (08:56 UTC)

预报

该预报发布于3小时和56分钟前的05:00 UTC
预报有效从13日的 06点(UTC)到 14日的 06点(UTC)
风速18节,风向东南
能见度10公里或以上
多云层高于3300英尺
短暂存在
从 13日的 06点(UTC)到 13日的 10点(UTC)
风速20节,风向东南,有时为35节阵风
成为
从 13日的 13点(UTC)到 13日的 15点(UTC)
风速20节,风向东南,有时为40节阵风
短暂存在
从 13日的 18点(UTC)到 14日的 06点(UTC)
风速25节,风向东南,有时为55节阵风

TAF: LYVR 130500Z 1306/1406 13018KT 9999 BKN033 TX11/1312Z TN06/1405Z TEMPO 1306/1310 14020G35KT BECMG 1313/1315 14020G40KT TEMPO 1318/1406 14025G55KT

超过4000个机场的气象观测和天气预报(METAR&TAF报告)。

可查询的气象台以黄色和红色小点在地图上表示。

将鼠标移到小点上方,可查看气象台名称。

然后点击查看天气观测和预报。

如需切换地图:点击带黑十字的绿色按钮放大地图;点击带横线的绿色按钮缩小地图;或者点击绿色箭头查看邻近地区的地图。


METAR-TAF: